Time;durP1;ratioP1;P1;durP2;ratioP2;P2;SDS_P1;SDS_P2;PMS_P1;PMS_P2;Temp;Humidity;BMP_temperature;BMP_pressure;BME280_temperature;BME280_humidity;BME280_pressure;Samples;Min_cycle;Max_cycle;Signal;HPM_P1;HPM_P2
2022/07/11 00:00:44;0.00;0.00;0.62;0.00;0.00;0.62;1.50;0.90;;;27.50;30.30;;;;;;2233584;62;20744;-66
2022/07/11 00:03:29;0.00;0.00;0.62;0.00;0.00;0.62;2.20;1.17;;;27.40;30.50;;;;;;2233273;62;20452;-65
2022/07/11 00:06:14;0.00;0.00;0.62;0.00;0.00;0.62;2.83;1.20;;;27.30;30.60;;;;;;2234006;62;20625;-65
2022/07/11 00:08:58;0.00;0.00;0.62;0.00;0.00;0.62;1.73;1.10;;;27.20;30.70;;;;;;2233048;62;20402;-65
2022/07/11 00:11:43;0.00;0.00;0.62;0.00;0.00;0.62;3.90;1.10;;;27.20;31.00;;;;;;2233918;62;20396;-65
2022/07/11 00:14:29;0.00;0.00;0.62;0.00;0.00;0.62;1.73;0.90;;;27.10;31.80;;;;;;2234244;62;20393;-65
2022/07/11 00:17:14;0.00;0.00;0.62;0.00;0.00;0.62;2.27;1.07;;;27.00;31.40;;;;;;2232622;62;20716;-66
2022/07/11 00:19:59;0.00;0.00;0.62;0.00;0.00;0.62;2.30;1.07;;;26.90;31.30;;;;;;2234132;62;20392;-65
2022/07/11 00:22:44;0.00;0.00;0.62;0.00;0.00;0.62;1.43;0.80;;;26.80;31.20;;;;;;2234133;62;20364;-65
2022/07/11 00:25:29;0.00;0.00;0.62;0.00;0.00;0.62;2.70;1.10;;;26.80;31.20;;;;;;2235321;62;20596;-65
2022/07/11 00:28:14;0.00;0.00;0.62;0.00;0.00;0.62;2.03;1.00;;;26.70;31.50;;;;;;2233921;62;20727;-66
2022/07/11 00:31:01;0.00;0.00;0.62;0.00;0.00;0.62;1.70;1.10;;;26.60;31.50;;;;;;2233444;62;20388;-66
2022/07/11 00:33:45;0.00;0.00;0.62;0.00;0.00;0.62;4.03;1.23;;;26.50;31.70;;;;;;2233850;62;20364;-65
2022/07/11 00:36:31;0.00;0.00;0.62;0.00;0.00;0.62;2.07;1.20;;;26.50;32.00;;;;;;2234090;62;20591;-66
2022/07/11 00:39:16;0.00;0.00;0.62;0.00;0.00;0.62;1.93;1.30;;;26.40;32.00;;;;;;2232487;62;20399;-66
2022/07/11 00:42:01;0.00;0.00;0.62;0.00;0.00;0.62;1.50;0.80;;;26.30;32.10;;;;;;2234046;62;20671;-66
2022/07/11 00:44:46;0.00;0.00;0.62;0.00;0.00;0.62;1.60;0.80;;;26.20;32.20;;;;;;2234106;62;20803;-66
2022/07/11 00:47:32;0.00;0.00;0.62;0.00;0.00;0.62;1.93;1.20;;;26.20;32.40;;;;;;2232647;62;20582;-66
2022/07/11 00:50:17;0.00;0.00;0.62;0.00;0.00;0.62;2.63;1.33;;;26.10;32.50;;;;;;2233937;62;20400;-65
2022/07/11 00:53:02;0.00;0.00;0.62;0.00;0.00;0.62;1.70;1.10;;;26.10;32.60;;;;;;2233777;62;20612;-66
2022/07/11 00:55:48;0.00;0.00;0.62;0.00;0.00;0.62;2.10;1.50;;;26.00;32.70;;;;;;2233642;62;20440;-67
2022/07/11 00:58:33;0.00;0.00;0.62;0.00;0.00;0.62;1.80;1.10;;;25.90;32.80;;;;;;2236317;62;20409;-66
2022/07/11 01:01:19;0.00;0.00;0.62;0.00;0.00;0.62;2.30;1.60;;;25.80;32.80;;;;;;2232530;62;20384;-66
2022/07/11 01:04:05;0.00;0.00;0.62;0.00;0.00;0.62;1.60;1.10;;;25.80;33.00;;;;;;2233815;62;20423;-66
2022/07/11 01:06:51;0.00;0.00;0.62;0.00;0.00;0.62;2.27;1.37;;;25.70;33.10;;;;;;2234001;62;20361;-65
2022/07/11 01:09:36;0.00;0.00;0.62;0.00;0.00;0.62;2.67;1.10;;;25.70;33.10;;;;;;2232776;62;20397;-66
2022/07/11 01:12:22;0.00;0.00;0.62;0.00;0.00;0.62;2.53;1.17;;;25.70;33.20;;;;;;2233938;62;20488;-65
2022/07/11 01:15:07;0.00;0.00;0.62;0.00;0.00;0.62;2.37;1.00;;;25.70;33.30;;;;;;2233705;62;20383;-66
2022/07/11 01:17:53;0.00;0.00;0.62;0.00;0.00;0.62;2.10;1.13;;;25.70;33.30;;;;;;2233161;62;20466;-66
2022/07/11 01:20:39;0.00;0.00;0.62;0.00;0.00;0.62;1.60;1.10;;;25.70;34.10;;;;;;2234188;62;20784;-65
2022/07/11 01:23:25;0.00;0.00;0.62;0.00;0.00;0.62;1.83;1.30;;;25.60;33.40;;;;;;2232694;62;20387;-66
2022/07/11 01:26:10;0.00;0.00;0.62;0.00;0.00;0.62;2.10;1.40;;;25.60;33.40;;;;;;2233948;62;20403;-66
2022/07/11 01:28:57;0.00;0.00;0.62;0.00;0.00;0.62;2.00;1.20;;;25.60;33.40;;;;;;2233836;62;20360;-66
2022/07/11 01:31:43;0.00;0.00;0.62;0.00;0.00;0.62;1.90;1.17;;;25.60;33.50;;;;;;2232315;62;20436;-66
2022/07/11 01:34:28;0.00;0.00;0.62;0.00;0.00;0.62;2.20;1.00;;;25.60;33.50;;;;;;2234113;62;20573;-66
2022/07/11 01:37:13;0.00;0.00;0.62;0.00;0.00;0.62;1.50;1.00;;;25.50;33.50;;;;;;2233629;62;20725;-66
2022/07/11 01:39:59;0.00;0.00;0.62;0.00;0.00;0.62;2.73;1.83;;;25.50;33.60;;;;;;2232924;62;20486;-66
2022/07/11 01:42:44;0.00;0.00;0.62;0.00;0.00;0.62;2.27;1.10;;;25.50;33.70;;;;;;2233969;62;20732;-66
2022/07/11 01:45:29;0.00;0.00;0.62;0.00;0.00;0.62;1.90;1.00;;;25.50;33.80;;;;;;2232804;62;20368;-66
2022/07/11 01:48:13;0.00;0.00;0.62;0.00;0.00;0.62;1.60;1.03;;;25.40;33.80;;;;;;2233869;62;20364;-66
2022/07/11 01:50:58;0.00;0.00;0.62;0.00;0.00;0.62;2.33;1.50;;;25.40;33.90;;;;;;2233857;62;20407;-66
2022/07/11 01:53:43;0.00;0.00;0.62;0.00;0.00;0.62;2.33;1.00;;;25.40;33.90;;;;;;2232581;62;20376;-66
2022/07/11 01:56:32;0.00;0.00;0.62;0.00;0.00;0.62;2.20;1.30;;;25.40;34.00;;;;;;2233952;62;20360;-66
2022/07/11 01:59:17;0.00;0.00;0.62;0.00;0.00;0.62;2.00;1.27;;;25.40;34.10;;;;;;2233375;62;20394;-66
2022/07/11 02:02:02;0.00;0.00;0.62;0.00;0.00;0.62;2.90;1.60;;;25.30;34.10;;;;;;2232912;62;20360;-66
2022/07/11 02:04:47;0.00;0.00;0.62;0.00;0.00;0.62;2.80;1.50;;;25.30;34.10;;;;;;2233941;62;20409;-66
2022/07/11 02:10:35;0.00;0.00;0.62;0.00;0.00;0.62;1.90;1.03;;;25.30;34.20;;;;;;2233813;62;20436;-66
2022/07/11 02:13:23;0.00;0.00;0.62;0.00;0.00;0.62;1.97;0.90;;;25.20;34.90;;;;;;2233794;62;20360;-66
2022/07/11 02:16:08;0.00;0.00;0.62;0.00;0.00;0.62;1.80;1.00;;;25.20;34.30;;;;;;2232070;62;20376;-66
2022/07/11 02:18:52;0.00;0.00;0.62;0.00;0.00;0.62;1.90;1.40;;;25.20;34.30;;;;;;2233815;62;20586;-66
2022/07/11 02:21:38;0.00;0.00;0.62;0.00;0.00;0.62;3.00;1.50;;;25.20;34.40;;;;;;2233524;62;20627;-66
2022/07/11 02:24:23;0.00;0.00;0.62;0.00;0.00;0.62;2.27;1.50;;;25.20;34.40;;;;;;2232966;62;20413;-66
2022/07/11 02:27:07;0.00;0.00;0.62;0.00;0.00;0.62;2.40;1.60;;;25.10;34.50;;;;;;2233681;62;20377;-66
2022/07/11 02:29:53;0.00;0.00;0.62;0.00;0.00;0.62;2.97;1.50;;;25.10;34.50;;;;;;2235643;62;20425;-66
2022/07/11 02:32:38;0.00;0.00;0.62;0.00;0.00;0.62;2.60;1.47;;;25.10;34.60;;;;;;2234606;62;20372;-66
2022/07/11 02:35:23;0.00;0.00;0.62;0.00;0.00;0.62;2.73;1.30;;;25.00;34.60;;;;;;2234489;62;20356;-66
2022/07/11 02:38:08;0.00;0.00;0.62;0.00;0.00;0.62;2.67;1.37;;;25.00;34.70;;;;;;2232955;62;20660;-66
2022/07/11 02:40:54;0.00;0.00;0.62;0.00;0.00;0.62;1.70;1.30;;;25.00;34.80;;;;;;2234386;62;20395;-66
2022/07/11 02:43:39;0.00;0.00;0.62;0.00;0.00;0.62;2.33;1.40;;;24.90;34.70;;;;;;2234132;62;20411;-66
2022/07/11 02:46:25;0.00;0.00;0.62;0.00;0.00;0.62;2.80;1.50;;;24.90;34.80;;;;;;2235750;62;20364;-67
2022/07/11 02:49:10;0.00;0.00;0.62;0.00;0.00;0.62;2.10;1.30;;;24.90;35.60;;;;;;2234430;62;20594;-66
2022/07/11 02:51:54;0.00;0.00;0.62;0.00;0.00;0.62;3.10;1.97;;;24.80;34.80;;;;;;2233238;62;20592;-66
2022/07/11 02:54:39;0.00;0.00;0.62;0.00;0.00;0.62;3.83;2.07;;;24.80;34.90;;;;;;2234562;62;20613;-67
2022/07/11 02:57:24;0.00;0.00;0.62;0.00;0.00;0.62;2.03;1.40;;;24.80;35.10;;;;;;2234380;62;20747;-66
2022/07/11 03:00:13;0.00;0.00;0.62;0.00;0.00;0.62;2.70;1.93;;;24.80;35.10;;;;;;2232764;62;20456;-66
2022/07/11 03:02:59;0.00;0.00;0.62;0.00;0.00;0.62;6.13;2.03;;;24.80;35.20;;;;;;2234380;62;20364;-66
2022/07/11 03:05:44;0.00;0.00;0.62;0.00;0.00;0.62;5.13;2.33;;;24.70;35.20;;;;;;2234039;62;20368;-66
2022/07/11 03:08:29;0.00;0.00;0.62;0.00;0.00;0.62;3.77;1.77;;;24.70;35.20;;;;;;2233270;62;20594;-66
2022/07/11 03:11:13;0.00;0.00;0.62;0.00;0.00;0.62;3.83;1.77;;;24.70;35.40;;;;;;2234248;62;20391;-66
2022/07/11 03:13:58;0.00;0.00;0.62;0.00;0.00;0.62;4.37;1.70;;;24.70;35.50;;;;;;2233264;62;20732;-66
2022/07/11 03:16:43;0.00;0.00;0.62;0.00;0.00;0.62;2.17;1.77;;;24.60;35.50;;;;;;2234095;62;20444;-66
2022/07/11 03:19:29;0.00;0.00;0.62;0.00;0.00;0.62;2.30;1.80;;;24.60;35.60;;;;;;2234138;62;20488;-66
2022/07/11 03:22:15;0.00;0.00;0.62;0.00;0.00;0.62;2.23;1.70;;;24.60;35.60;;;;;;2232881;62;20594;-65
2022/07/11 03:25:00;0.00;0.00;0.62;0.00;0.00;0.62;2.40;1.30;;;24.60;35.70;;;;;;2234387;62;20432;-66
2022/07/11 03:27:45;0.00;0.00;0.62;0.00;0.00;0.62;2.57;1.63;;;24.60;35.70;;;;;;2234022;62;20579;-66
2022/07/11 03:30:30;0.00;0.00;0.62;0.00;0.00;0.62;2.40;1.70;;;24.60;35.70;;;;;;2233151;62;20379;-66
2022/07/11 03:33:14;0.00;0.00;0.62;0.00;0.00;0.62;3.17;2.03;;;24.60;35.80;;;;;;2234330;62;20405;-66
2022/07/11 03:36:00;0.00;0.00;0.62;0.00;0.00;0.62;2.70;1.93;;;24.60;35.70;;;;;;2233744;62;20380;-65
2022/07/11 03:38:45;0.00;0.00;0.62;0.00;0.00;0.62;2.20;1.60;;;24.60;35.70;;;;;;2233906;62;20372;-65
2022/07/11 03:41:30;0.00;0.00;0.62;0.00;0.00;0.62;3.17;1.67;;;24.60;35.70;;;;;;2233823;62;20591;-65
2022/07/11 03:44:15;0.00;0.00;0.62;0.00;0.00;0.62;3.53;1.63;;;24.60;35.70;;;;;;2232757;62;20697;-65
2022/07/11 03:46:59;0.00;0.00;0.62;0.00;0.00;0.62;2.90;1.83;;;24.60;35.70;;;;;;2234239;62;20376;-66
2022/07/11 03:49:44;0.00;0.00;0.62;0.00;0.00;0.62;7.13;1.93;;;24.60;35.70;;;;;;2234231;62;20480;-68
2022/07/11 03:52:32;0.00;0.00;0.62;0.00;0.00;0.62;3.60;1.80;;;24.60;35.80;;;;;;2233024;62;20605;-65
2022/07/11 03:55:16;0.00;0.00;0.62;0.00;0.00;0.62;1.93;1.50;;;24.60;35.80;;;;;;2234262;62;20372;-66
2022/07/11 03:58:01;0.00;0.00;0.62;0.00;0.00;0.62;1.93;1.40;;;24.70;35.90;;;;;;2233916;62;20348;-66
2022/07/11 04:00:46;0.00;0.00;0.62;0.00;0.00;0.62;2.20;1.50;;;24.70;35.90;;;;;;2233869;62;20844;-68
2022/07/11 04:03:31;0.00;0.00;0.62;0.00;0.00;0.62;2.60;1.57;;;24.70;35.90;;;;;;2234262;62;20417;-68
2022/07/11 04:06:16;0.00;0.00;0.62;0.00;0.00;0.62;3.50;2.00;;;24.70;35.80;;;;;;2235120;62;20613;-66
2022/07/11 04:09:02;0.00;0.00;0.62;0.00;0.00;0.62;2.60;1.53;;;24.70;35.80;;;;;;2234119;62;20504;-66
2022/07/11 04:11:47;0.00;0.00;0.62;0.00;0.00;0.62;1.83;1.40;;;24.70;35.80;;;;;;2234141;62;20574;-66
2022/07/11 04:14:32;0.00;0.00;0.62;0.00;0.00;0.62;1.70;1.20;;;24.80;35.80;;;;;;2232754;62;20365;-66
2022/07/11 04:17:17;0.00;0.00;0.62;0.00;0.00;0.62;2.70;1.70;;;24.80;35.70;;;;;;2234080;62;20621;-67
2022/07/11 04:20:03;0.00;0.00;0.62;0.00;0.00;0.62;1.80;1.30;;;24.80;35.60;;;;;;2233675;62;20758;-65
2022/07/11 04:22:49;0.00;0.00;0.62;0.00;0.00;0.62;1.97;1.27;;;24.90;35.60;;;;;;2233604;62;20576;-64
2022/07/11 04:25:35;0.00;0.00;0.62;0.00;0.00;0.62;2.20;1.53;;;24.90;35.60;;;;;;2234106;62;20500;-66
2022/07/11 04:28:19;0.00;0.00;0.62;0.00;0.00;0.62;3.10;1.80;;;24.90;35.60;;;;;;2231676;62;20384;-67
2022/07/11 04:31:04;0.00;0.00;0.62;0.00;0.00;0.62;2.17;1.83;;;25.00;35.70;;;;;;2230437;62;20391;-66
2022/07/11 04:33:49;0.00;0.00;0.62;0.00;0.00;0.62;3.57;2.10;;;25.00;35.60;;;;;;2233945;62;20372;-66
2022/07/11 04:36:34;0.00;0.00;0.62;0.00;0.00;0.62;3.80;1.87;;;25.00;35.70;;;;;;2232974;62;20438;-65
2022/07/11 04:39:19;0.00;0.00;0.62;0.00;0.00;0.62;4.47;2.30;;;25.00;35.70;;;;;;2233952;62;20368;-67
2022/07/11 04:42:06;0.00;0.00;0.62;0.00;0.00;0.62;2.80;2.00;;;25.00;35.70;;;;;;2233869;62;20420;-67
2022/07/11 04:44:51;0.00;0.00;0.62;0.00;0.00;0.62;3.43;2.03;;;25.00;35.80;;;;;;2233516;62;20755;-66
2022/07/11 04:47:36;0.00;0.00;0.62;0.00;0.00;0.62;2.47;1.90;;;25.00;35.80;;;;;;2233950;62;20728;-66
2022/07/11 04:50:21;0.00;0.00;0.62;0.00;0.00;0.62;3.30;2.10;;;25.00;35.80;;;;;;2233352;62;20395;-66
2022/07/11 04:53:06;0.00;0.00;0.62;0.00;0.00;0.62;4.60;2.40;;;25.00;36.00;;;;;;2233997;62;20472;-66
2022/07/11 04:55:51;0.00;0.00;0.62;0.00;0.00;0.62;1.80;1.43;;;24.90;35.90;;;;;;2234248;62;20719;-65
2022/07/11 04:58:37;0.00;0.00;0.62;0.00;0.00;0.62;4.10;2.27;;;25.00;36.00;;;;;;2232873;62;20380;-66
2022/07/11 05:01:22;0.00;0.00;0.62;0.00;0.00;0.62;2.40;1.73;;;24.90;36.50;;;;;;2236318;62;20396;-65
2022/07/11 05:04:07;0.00;0.00;0.62;0.00;0.00;0.62;3.93;2.17;;;25.00;35.90;;;;;;2233761;62;20392;-66
2022/07/11 05:06:52;0.00;0.00;0.62;0.00;0.00;0.62;2.53;1.80;;;25.00;35.90;;;;;;2233283;62;20372;-67
2022/07/11 05:09:37;0.00;0.00;0.62;0.00;0.00;0.62;2.40;1.60;;;25.00;35.90;;;;;;2234116;62;20359;-67
2022/07/11 05:12:21;0.00;0.00;0.62;0.00;0.00;0.62;3.47;1.80;;;25.00;36.00;;;;;;2233237;62;20687;-66
2022/07/11 05:15:09;0.00;0.00;0.62;0.00;0.00;0.62;3.33;1.50;;;25.00;35.90;;;;;;2233751;62;20359;-66
2022/07/11 05:17:54;0.00;0.00;0.62;0.00;0.00;0.62;3.20;1.80;;;25.00;35.80;;;;;;2234026;62;20376;-66
2022/07/11 05:20:39;0.00;0.00;0.62;0.00;0.00;0.62;2.97;1.77;;;25.00;35.90;;;;;;2232817;62;20384;-66
2022/07/11 05:23:24;0.00;0.00;0.62;0.00;0.00;0.62;4.20;2.30;;;25.00;35.90;;;;;;2234138;62;20736;-66
2022/07/11 05:26:10;0.00;0.00;0.62;0.00;0.00;0.62;4.53;1.90;;;25.00;35.90;;;;;;2233649;62;20681;-66
2022/07/11 05:28:54;0.00;0.00;0.62;0.00;0.00;0.62;3.13;1.80;;;25.00;35.90;;;;;;2233110;62;20376;-66
2022/07/11 05:31:42;0.00;0.00;0.62;0.00;0.00;0.62;2.60;2.07;;;25.00;35.90;;;;;;2234047;62;20383;-65
2022/07/11 05:34:27;0.00;0.00;0.62;0.00;0.00;0.62;3.87;2.00;;;25.00;36.00;;;;;;2233286;62;20442;-66
2022/07/11 05:37:12;0.00;0.00;0.62;0.00;0.00;0.62;2.53;1.60;;;25.00;36.00;;;;;;2233869;62;20583;-66
2022/07/11 05:39:56;0.00;0.00;0.62;0.00;0.00;0.62;4.70;1.93;;;24.90;35.90;;;;;;2234036;62;20756;-66
2022/07/11 05:42:41;0.00;0.00;0.62;0.00;0.00;0.62;2.67;1.87;;;24.90;35.80;;;;;;2232770;62;20394;-65
2022/07/11 05:45:26;0.00;0.00;0.62;0.00;0.00;0.62;1.97;1.60;;;24.90;35.80;;;;;;2234001;62;20388;-68
2022/07/11 05:48:12;0.00;0.00;0.62;0.00;0.00;0.62;2.53;1.60;;;24.90;35.80;;;;;;2233812;62;20400;-67
2022/07/11 05:50:57;0.00;0.00;0.62;0.00;0.00;0.62;4.60;1.63;;;24.90;35.80;;;;;;2233077;62;20396;-65
2022/07/11 05:53:41;0.00;0.00;0.62;0.00;0.00;0.62;3.00;1.90;;;24.90;35.90;;;;;;2233995;62;20407;-68
2022/07/11 05:56:26;0.00;0.00;0.62;0.00;0.00;0.62;3.10;1.80;;;24.90;35.90;;;;;;2233601;62;20372;-70
2022/07/11 05:59:10;0.00;0.00;0.62;0.00;0.00;0.62;2.23;1.70;;;24.90;35.90;;;;;;2233759;62;20436;-69
2022/07/11 06:01:56;0.00;0.00;0.62;0.00;0.00;0.62;3.00;2.00;;;24.90;35.90;;;;;;2233878;62;20363;-70
2022/07/11 06:04:42;0.00;0.00;0.62;0.00;0.00;0.62;1.80;1.27;;;24.90;35.90;;;;;;2233317;62;20391;-66
2022/07/11 06:10:33;0.00;0.00;0.62;0.00;0.00;0.62;2.33;1.37;;;24.90;35.80;;;;;;2234591;62;20603;-69
2022/07/11 06:13:18;0.00;0.00;0.62;0.00;0.00;0.62;2.80;1.20;;;24.90;35.90;;;;;;2233588;62;20371;-69
2022/07/11 06:16:04;0.00;0.00;0.62;0.00;0.00;0.62;2.10;1.50;;;24.90;35.90;;;;;;2234473;62;20385;-70
2022/07/11 06:18:50;0.00;0.00;0.62;0.00;0.00;0.62;3.13;1.73;;;24.90;36.00;;;;;;2234143;62;20716;-70
2022/07/11 06:21:37;0.00;0.00;0.62;0.00;0.00;0.62;4.37;1.60;;;24.80;35.90;;;;;;2234043;62;20407;-72
2022/07/11 06:24:30;0.00;0.00;0.62;0.00;0.00;0.62;2.27;1.50;;;24.80;35.70;;;;;;2234620;62;20384;-70
2022/07/11 06:27:15;0.00;0.00;0.62;0.00;0.00;0.62;4.63;2.00;;;24.90;35.70;;;;;;2233213;62;20360;-70
2022/07/11 06:29:59;0.00;0.00;0.62;0.00;0.00;0.62;1.90;1.17;;;24.90;35.70;;;;;;2234435;62;20660;-69
2022/07/11 06:32:44;0.00;0.00;0.62;0.00;0.00;0.62;1.67;1.10;;;24.90;35.60;;;;;;2234594;62;20395;-71
2022/07/11 06:35:29;0.00;0.00;0.62;0.00;0.00;0.62;3.40;1.30;;;25.00;35.70;;;;;;2233883;62;20631;-69
2022/07/11 06:38:16;0.00;0.00;0.62;0.00;0.00;0.62;2.47;1.33;;;25.00;35.60;;;;;;2234484;62;20440;-73
2022/07/11 06:41:01;0.00;0.00;0.62;0.00;0.00;0.62;1.60;1.30;;;25.00;35.50;;;;;;2234073;62;20391;-67
2022/07/11 06:43:47;0.00;0.00;0.62;0.00;0.00;0.62;4.57;1.53;;;25.00;35.40;;;;;;2234136;62;20752;-69
2022/07/11 06:46:32;0.00;0.00;0.62;0.00;0.00;0.62;2.83;1.33;;;25.10;35.40;;;;;;2234396;62;20371;-72
2022/07/11 06:49:17;0.00;0.00;0.62;0.00;0.00;0.62;3.13;1.47;;;25.10;35.40;;;;;;2233401;62;20433;-74
2022/07/11 06:52:02;0.00;0.00;0.62;0.00;0.00;0.62;2.23;1.57;;;25.20;35.20;;;;;;2234299;62;20368;-69
2022/07/11 06:54:48;0.00;0.00;0.62;0.00;0.00;0.62;1.97;1.43;;;25.20;35.20;;;;;;2234707;62;20569;-66
2022/07/11 06:57:32;0.00;0.00;0.62;0.00;0.00;0.62;1.80;1.20;;;25.20;35.10;;;;;;2233748;62;20372;-66
2022/07/11 07:00:20;0.00;0.00;0.62;0.00;0.00;0.62;1.80;1.20;;;25.20;35.10;;;;;;2234434;62;20629;-67
2022/07/11 07:03:05;0.00;0.00;0.62;0.00;0.00;0.62;1.77;1.23;;;25.30;35.00;;;;;;2234502;62;20409;-66
2022/07/11 07:05:55;0.00;0.00;0.62;0.00;0.00;0.62;2.23;1.37;;;25.30;35.00;;;;;;2234144;62;20387;-69
2022/07/11 07:08:40;0.00;0.00;0.62;0.00;0.00;0.62;2.53;1.27;;;25.30;34.90;;;;;;2236571;62;20359;-67
2022/07/11 07:11:26;0.00;0.00;0.62;0.00;0.00;0.62;2.20;1.23;;;25.40;34.90;;;;;;2233458;62;20380;-69
2022/07/11 07:14:11;0.00;0.00;0.62;0.00;0.00;0.62;2.00;1.30;;;25.40;34.90;;;;;;2234405;62;20376;-70
2022/07/11 07:16:55;0.00;0.00;0.62;0.00;0.00;0.62;1.60;1.17;;;25.40;34.80;;;;;;2234424;62;20387;-70
2022/07/11 07:19:41;0.00;0.00;0.62;0.00;0.00;0.62;2.10;0.93;;;25.50;34.80;;;;;;2233609;62;20465;-71
2022/07/11 07:22:26;0.00;0.00;0.62;0.00;0.00;0.62;1.50;0.90;;;25.50;34.80;;;;;;2234580;62;20375;-67
2022/07/11 07:25:11;0.00;0.00;0.62;0.00;0.00;0.62;1.50;1.10;;;25.50;34.80;;;;;;2234144;62;20415;-68
2022/07/11 07:27:57;0.00;0.00;0.62;0.00;0.00;0.62;2.23;1.33;;;25.60;34.70;;;;;;2233817;62;20445;-72
2022/07/11 07:30:42;0.00;0.00;0.62;0.00;0.00;0.62;1.73;1.40;;;25.60;34.70;;;;;;2234502;62;20466;-70
2022/07/11 07:33:27;0.00;0.00;0.62;0.00;0.00;0.62;2.13;1.10;;;25.70;34.60;;;;;;2233289;62;20361;-70
2022/07/11 07:36:12;0.00;0.00;0.62;0.00;0.00;0.62;2.10;1.20;;;25.70;34.60;;;;;;2234104;62;20364;-71
2022/07/11 07:38:57;0.00;0.00;0.62;0.00;0.00;0.62;2.90;1.47;;;25.80;34.70;;;;;;2234385;62;20400;-67
2022/07/11 07:41:43;0.00;0.00;0.62;0.00;0.00;0.62;2.37;1.30;;;25.80;34.60;;;;;;2233384;62;20389;-62
2022/07/11 07:44:29;0.00;0.00;0.62;0.00;0.00;0.62;2.20;1.20;;;25.80;34.50;;;;;;2234471;62;20388;-67
2022/07/11 07:47:14;0.00;0.00;0.62;0.00;0.00;0.62;1.50;0.90;;;25.80;34.40;;;;;;2233845;62;20466;-69
2022/07/11 07:49:59;0.00;0.00;0.62;0.00;0.00;0.62;1.70;1.00;;;25.90;34.40;;;;;;2233888;62;20407;-71
2022/07/11 07:52:44;0.00;0.00;0.62;0.00;0.00;0.62;2.90;1.70;;;25.90;34.40;;;;;;2234437;62;20361;-70
2022/07/11 07:55:28;0.00;0.00;0.62;0.00;0.00;0.62;2.43;1.30;;;25.90;34.40;;;;;;2233536;62;20356;-72
2022/07/11 07:58:13;0.00;0.00;0.62;0.00;0.00;0.62;2.10;0.93;;;26.00;34.30;;;;;;2234372;62;20376;-71
2022/07/11 08:04:04;0.00;0.00;0.62;0.00;0.00;0.62;1.60;0.90;;;26.00;34.20;;;;;;2233327;62;20419;-73
2022/07/11 08:06:49;0.00;0.00;0.62;0.00;0.00;0.62;1.87;1.00;;;26.00;34.20;;;;;;2234376;62;20496;-69
2022/07/11 08:09:34;0.00;0.00;0.62;0.00;0.00;0.62;2.83;1.30;;;26.00;34.10;;;;;;2233081;62;20370;-70
2022/07/11 08:12:18;0.00;0.00;0.62;0.00;0.00;0.62;1.70;1.00;;;26.00;34.10;;;;;;2233821;62;20364;-68
2022/07/11 08:15:05;0.00;0.00;0.62;0.00;0.00;0.62;1.77;1.10;;;26.00;34.10;;;;;;2234274;62;20373;-70
2022/07/11 08:17:52;0.00;0.00;0.62;0.00;0.00;0.62;1.50;0.90;;;26.10;34.10;;;;;;2233241;62;20365;-67
2022/07/11 08:20:37;0.00;0.00;0.62;0.00;0.00;0.62;2.67;1.03;;;26.10;34.10;;;;;;2234195;62;20391;-67
2022/07/11 08:23:22;0.00;0.00;0.62;0.00;0.00;0.62;1.60;1.00;;;26.10;34.00;;;;;;2234185;62;20388;-69
2022/07/11 08:26:07;0.00;0.00;0.62;0.00;0.00;0.62;1.57;1.03;;;26.10;34.00;;;;;;2232819;62;20376;-67
2022/07/11 08:28:52;0.00;0.00;0.62;0.00;0.00;0.62;1.70;1.00;;;26.10;34.00;;;;;;2234130;62;20356;-66
2022/07/11 08:31:37;0.00;0.00;0.62;0.00;0.00;0.62;1.60;1.10;;;26.20;34.00;;;;;;2234785;56;20787;-71
2022/07/11 08:34:24;0.00;0.00;0.62;0.00;0.00;0.62;1.70;0.90;;;26.20;34.00;;;;;;2233860;62;20360;-69
2022/07/11 08:37:09;0.00;0.00;0.62;0.00;0.00;0.62;1.90;1.10;;;26.20;33.90;;;;;;2234110;62;20372;-67
2022/07/11 08:39:53;0.00;0.00;0.62;0.00;0.00;0.62;1.30;0.80;;;26.30;33.90;;;;;;2232552;62;20497;-70
2022/07/11 08:42:42;0.00;0.00;0.62;0.00;0.00;0.62;2.60;0.90;;;26.30;33.90;;;;;;2230242;62;20384;-67
2022/07/11 08:45:30;0.00;0.00;0.62;0.00;0.00;0.62;1.80;1.10;;;26.30;33.80;;;;;;2230146;62;20389;-68
2022/07/11 08:48:16;0.00;0.00;0.62;0.00;0.00;0.62;2.07;0.90;;;26.30;33.80;;;;;;2229618;62;20413;-67
2022/07/11 08:51:02;0.00;0.00;0.62;0.00;0.00;0.62;1.67;1.07;;;26.40;33.90;;;;;;2229998;62;20691;-70
2022/07/11 08:53:47;0.00;0.00;0.62;0.00;0.00;0.62;2.67;1.23;;;26.40;33.60;;;;;;2229310;62;20376;-72
2022/07/11 08:56:32;0.00;0.00;0.62;0.00;0.00;0.62;2.30;0.93;;;26.40;33.60;;;;;;2229909;62;20361;-69
2022/07/11 08:59:19;0.00;0.00;0.62;0.00;0.00;0.62;2.30;0.97;;;26.50;33.60;;;;;;2230043;62;20443;-71
2022/07/11 09:02:05;0.00;0.00;0.62;0.00;0.00;0.62;1.90;1.10;;;26.50;33.50;;;;;;2229477;62;20377;-74
2022/07/11 09:04:51;0.00;0.00;0.62;0.00;0.00;0.62;2.77;1.10;;;26.50;33.50;;;;;;2230144;62;20384;-72
2022/07/11 09:07:44;0.00;0.00;0.62;0.00;0.00;0.62;3.13;1.20;;;26.60;33.50;;;;;;2230087;62;20600;-74
2022/07/11 09:10:29;0.00;0.00;0.62;0.00;0.00;0.62;2.30;1.17;;;26.60;33.40;;;;;;2229873;62;20619;-76
2022/07/11 09:13:16;0.00;0.00;0.62;0.00;0.00;0.62;2.77;1.00;;;26.60;33.20;;;;;;2230155;62;20408;-72
2022/07/11 09:16:03;0.00;0.00;0.62;0.00;0.00;0.62;2.53;1.10;;;26.60;33.20;;;;;;2229743;62;20378;-71
2022/07/11 09:18:48;0.00;0.00;0.62;0.00;0.00;0.62;1.70;0.93;;;26.60;33.10;;;;;;2229844;62;20364;-71
2022/07/11 09:27:43;0.00;0.00;0.62;0.00;0.00;0.62;3.50;2.30;;;26.60;32.80;;;;;;2230011;62;20373;-73
2022/07/11 09:30:31;0.00;0.00;0.62;0.00;0.00;0.62;4.20;2.23;;;26.60;32.90;;;;;;2229028;62;20438;-67
2022/07/11 09:33:17;0.00;0.00;0.62;0.00;0.00;0.62;2.03;1.40;;;26.60;32.90;;;;;;2229645;62;20388;-69
2022/07/11 09:36:03;0.00;0.00;0.62;0.00;0.00;0.62;2.30;0.93;;;26.60;32.80;;;;;;2230132;62;20361;-69
2022/07/11 09:38:56;0.00;0.00;0.62;0.00;0.00;0.62;2.10;1.00;;;26.60;32.80;;;;;;2228755;62;20385;-69
2022/07/11 09:41:44;0.00;0.00;0.62;0.00;0.00;0.62;2.37;1.20;;;26.60;32.80;;;;;;2230048;62;20413;-65
2022/07/11 09:44:33;0.00;0.00;0.62;0.00;0.00;0.62;1.80;1.00;;;26.60;32.80;;;;;;2230088;62;20495;-68
2022/07/11 09:47:19;0.00;0.00;0.62;0.00;0.00;0.62;4.03;1.10;;;26.60;32.80;;;;;;2229173;62;20587;-70
2022/07/11 09:50:05;0.00;0.00;0.62;0.00;0.00;0.62;2.10;0.80;;;26.70;32.60;;;;;;2229506;62;20422;-66
2022/07/11 09:53:05;0.00;0.00;0.62;0.00;0.00;0.62;1.40;0.80;;;26.70;32.60;;;;;;2229363;62;20425;-68
2022/07/11 09:55:50;0.00;0.00;0.62;0.00;0.00;0.62;2.97;1.70;;;26.70;32.60;;;;;;2229777;62;20430;-68
2022/07/11 09:58:36;0.00;0.00;0.62;0.00;0.00;0.62;2.73;1.87;;;26.70;32.60;;;;;;2229965;62;20416;-70
2022/07/11 10:01:21;0.00;0.00;0.62;0.00;0.00;0.62;3.23;1.20;;;26.70;32.60;;;;;;2228614;62;20400;-67
2022/07/11 10:04:08;0.00;0.00;0.62;0.00;0.00;0.62;3.27;2.13;;;26.70;32.60;;;;;;2230008;62;20365;-66
2022/07/11 10:06:53;0.00;0.00;0.62;0.00;0.00;0.62;3.20;1.63;;;26.70;32.60;;;;;;2230031;62;20369;-67
2022/07/11 10:09:40;0.00;0.00;0.62;0.00;0.00;0.62;1.73;1.03;;;26.60;32.60;;;;;;2229388;62;20441;-63
2022/07/11 10:12:27;0.00;0.00;0.62;0.00;0.00;0.62;1.80;1.10;;;26.60;32.60;;;;;;2230014;62;20595;-67
2022/07/11 10:15:17;0.00;0.00;0.62;0.00;0.00;0.62;1.53;1.10;;;26.60;32.60;;;;;;2229160;62;20441;-65
2022/07/11 10:18:15;0.00;0.00;0.62;0.00;0.00;0.62;1.60;1.10;;;26.60;32.70;;;;;;2229758;62;20366;-66
2022/07/11 10:21:07;0.00;0.00;0.62;0.00;0.00;0.62;2.50;1.17;;;26.60;32.60;;;;;;2229840;62;20756;-67
2022/07/11 10:24:00;0.00;0.00;0.62;0.00;0.00;0.62;2.07;1.30;;;26.60;32.70;;;;;;2231276;62;20398;-65
2022/07/11 10:26:53;0.00;0.00;0.62;0.00;0.00;0.62;2.00;0.90;;;26.60;32.80;;;;;;2229929;62;20385;-65
2022/07/11 10:29:44;0.00;0.00;0.62;0.00;0.00;0.62;1.80;1.07;;;26.60;32.70;;;;;;2229326;62;20378;-65
2022/07/11 10:32:31;0.00;0.00;0.62;0.00;0.00;0.62;1.47;0.97;;;26.60;32.80;;;;;;2229559;62;20372;-64
2022/07/11 10:35:15;0.00;0.00;0.62;0.00;0.00;0.62;2.37;1.00;;;26.60;32.70;;;;;;2229888;62;20370;-67
2022/07/11 10:38:05;0.00;0.00;0.62;0.00;0.00;0.62;1.60;0.90;;;26.60;32.80;;;;;;2229058;62;20360;-68
2022/07/11 10:40:51;0.00;0.00;0.62;0.00;0.00;0.62;1.40;0.97;;;26.60;32.90;;;;;;2229783;62;20421;-69
2022/07/11 10:43:40;0.00;0.00;0.62;0.00;0.00;0.62;3.40;1.10;;;26.60;32.80;;;;;;2229984;62;20441;-67
2022/07/11 10:46:27;0.00;0.00;0.62;0.00;0.00;0.62;2.00;1.20;;;26.60;32.80;;;;;;2228882;62;20442;-64
2022/07/11 10:49:29;0.00;0.00;0.62;0.00;0.00;0.62;3.40;1.30;;;26.60;32.80;;;;;;2229922;62;20361;-66
2022/07/11 10:52:22;0.00;0.00;0.62;0.00;0.00;0.62;4.60;1.30;;;26.60;32.80;;;;;;2229827;62;20690;-66
2022/07/11 10:55:32;0.00;0.00;0.62;0.00;0.00;0.62;3.33;1.00;;;26.60;32.70;;;;;;2230210;62;20385;-66
2022/07/11 10:58:24;0.00;0.00;0.62;0.00;0.00;0.62;2.13;1.00;;;26.60;32.80;;;;;;2230572;62;20405;-64
2022/07/11 11:01:11;0.00;0.00;0.62;0.00;0.00;0.62;1.43;0.90;;;26.70;32.80;;;;;;2229458;62;20432;-67
2022/07/11 11:04:47;0.00;0.00;0.62;0.00;0.00;0.62;1.60;0.80;;;26.60;32.80;;;;;;2230594;62;20373;-68
2022/07/11 11:07:38;0.00;0.00;0.62;0.00;0.00;0.62;1.73;0.97;;;26.70;32.90;;;;;;2229671;62;20716;-67
2022/07/11 11:10:51;0.00;0.00;0.62;0.00;0.00;0.62;5.40;1.13;;;26.70;32.90;;;;;;2230387;62;20385;-65